Time;durP1;ratioP1;P1;durP2;ratioP2;P2;SDS_P1;SDS_P2;PMS_P1;PMS_P2;Temp;Humidity;BMP_temperature;BMP_pressure;BME280_temperature;BME280_humidity;BME280_pressure;Samples;Min_cycle;Max_cycle;Signal;HPM_P1;HPM_P2
2022/03/05 00:00:25;;;;;;;19.03;12.20;;;;;;;;;;5018962;28;20647;-71
2022/03/05 00:02:53;;;;;;;19.60;11.37;;;;;;;;;;5026950;28;20234;-70
2022/03/05 00:05:21;;;;;;;20.60;11.80;;;;;;;;;;5038445;28;20274;-70
2022/03/05 00:07:49;;;;;;;16.97;11.07;;;;;;;;;;5038705;28;20231;-70
2022/03/05 00:10:19;;;;;;;19.47;11.90;;;;;;;;;;5020662;28;20637;-70
2022/03/05 00:12:49;;;;;;;16.97;10.77;;;;;;;;;;5018756;28;20248;-71
2022/03/05 00:15:17;;;;;;;19.37;12.40;;;;;;;;;;5018586;28;20267;-71
2022/03/05 00:17:47;;;;;;;21.53;11.47;;;;;;;;;;5036071;28;20236;-70
2022/03/05 00:20:15;;;;;;;18.87;11.17;;;;;;;;;;5038593;28;20207;-69
2022/03/05 00:22:43;;;;;;;19.20;11.50;;;;;;;;;;5038682;28;20235;-71
2022/03/05 00:25:12;;;;;;;17.90;11.77;;;;;;;;;;5035585;28;20660;-70
2022/03/05 00:27:40;;;;;;;19.13;11.93;;;;;;;;;;5022966;28;20230;-70
2022/03/05 00:30:10;;;;;;;18.67;11.60;;;;;;;;;;5038646;28;20208;-71
2022/03/05 00:32:38;;;;;;;20.00;11.63;;;;;;;;;;5038236;28;20299;-71
2022/03/05 00:35:06;;;;;;;18.50;11.50;;;;;;;;;;5038341;28;20267;-71
2022/03/05 00:37:35;;;;;;;17.47;11.53;;;;;;;;;;5038345;28;20231;-70
2022/03/05 00:40:03;;;;;;;16.70;11.40;;;;;;;;;;5038072;28;20735;-70
2022/03/05 00:42:31;;;;;;;16.93;11.63;;;;;;;;;;5038386;28;20295;-70
2022/03/05 00:45:00;;;;;;;18.40;11.47;;;;;;;;;;5037853;28;20283;-71
2022/03/05 00:47:29;;;;;;;21.30;10.80;;;;;;;;;;5038637;28;20208;-70
2022/03/05 00:49:57;;;;;;;17.53;10.53;;;;;;;;;;5037651;28;20247;-70
2022/03/05 00:52:25;;;;;;;17.63;10.73;;;;;;;;;;5038141;28;20204;-71
2022/03/05 00:54:53;;;;;;;19.07;11.33;;;;;;;;;;5038058;28;20319;-70
2022/03/05 00:57:21;;;;;;;20.30;11.70;;;;;;;;;;5037692;28;20655;-70
2022/03/05 00:59:49;;;;;;;16.90;10.67;;;;;;;;;;5029106;28;20740;-70
2022/03/05 01:02:17;;;;;;;17.70;10.30;;;;;;;;;;5030903;28;20653;-70
2022/03/05 01:04:47;;;;;;;18.40;11.03;;;;;;;;;;5017887;28;20652;-70
2022/03/05 01:07:15;;;;;;;17.73;11.17;;;;;;;;;;5017972;28;20260;-70
2022/03/05 01:09:43;;;;;;;20.57;11.27;;;;;;;;;;5018249;28;20664;-70
2022/03/05 01:12:11;;;;;;;17.87;10.93;;;;;;;;;;5017977;28;20322;-70
2022/03/05 01:14:39;;;;;;;16.70;10.00;;;;;;;;;;5018035;28;20232;-70
2022/03/05 01:17:08;;;;;;;16.93;10.40;;;;;;;;;;5030161;28;20223;-70
2022/03/05 01:19:36;;;;;;;18.13;11.27;;;;;;;;;;5037352;28;20645;-70
2022/03/05 01:22:06;;;;;;;17.47;11.40;;;;;;;;;;5037587;28;20294;-70
2022/03/05 01:24:34;;;;;;;18.43;10.37;;;;;;;;;;5037859;28;20246;-70
2022/03/05 01:27:02;;;;;;;21.70;11.57;;;;;;;;;;5019330;28;20224;-70
2022/03/05 01:29:30;;;;;;;16.20;10.43;;;;;;;;;;5030957;28;20251;-70
2022/03/05 01:31:58;;;;;;;19.70;11.20;;;;;;;;;;5017964;28;20240;-70
2022/03/05 01:34:27;;;;;;;20.17;11.30;;;;;;;;;;5023924;28;20627;-70
2022/03/05 01:36:55;;;;;;;18.23;10.90;;;;;;;;;;5037465;28;20317;-71
2022/03/05 01:39:24;;;;;;;19.37;10.37;;;;;;;;;;5037302;28;20645;-70
2022/03/05 01:41:55;;;;;;;18.33;11.33;;;;;;;;;;5037350;28;20271;-70
2022/03/05 01:44:23;;;;;;;18.17;11.40;;;;;;;;;;5037608;28;20208;-70
2022/03/05 01:46:51;;;;;;;20.63;11.83;;;;;;;;;;5037394;28;20227;-70
2022/03/05 01:49:20;;;;;;;18.33;11.30;;;;;;;;;;5037054;28;20207;-70
2022/03/05 01:51:48;;;;;;;15.83;10.33;;;;;;;;;;5037242;28;20250;-70
2022/03/05 01:54:16;;;;;;;17.60;11.13;;;;;;;;;;5037165;28;20314;-70
2022/03/05 01:56:45;;;;;;;18.57;11.33;;;;;;;;;;5037025;28;20269;-70
2022/03/05 01:59:13;;;;;;;19.63;11.47;;;;;;;;;;5036967;28;20235;-70
2022/03/05 02:01:41;;;;;;;23.30;12.47;;;;;;;;;;5037201;28;20235;-70
2022/03/05 02:04:10;;;;;;;19.83;12.07;;;;;;;;;;5019604;28;20211;-70
2022/03/05 02:06:38;;;;;;;21.60;10.90;;;;;;;;;;5017478;28;20232;-70
2022/03/05 02:09:06;;;;;;;19.27;11.13;;;;;;;;;;5017460;28;20232;-70
2022/03/05 02:11:34;;;;;;;19.33;11.50;;;;;;;;;;5017086;28;20650;-70
2022/03/05 02:14:03;;;;;;;21.40;11.87;;;;;;;;;;5017121;28;20303;-70
2022/03/05 02:16:31;;;;;;;22.30;11.23;;;;;;;;;;5024350;28;20258;-70
2022/03/05 02:18:59;;;;;;;21.23;11.77;;;;;;;;;;5036705;28;20575;-70
2022/03/05 02:21:29;;;;;;;19.53;11.13;;;;;;;;;;5037016;28;20671;-70
2022/03/05 02:23:57;;;;;;;21.87;11.33;;;;;;;;;;5036786;28;20641;-70
2022/03/05 02:26:25;;;;;;;20.17;11.90;;;;;;;;;;5025728;28;20787;-70
2022/03/05 02:28:53;;;;;;;17.10;11.20;;;;;;;;;;5034460;28;20274;-69
2022/03/05 02:31:21;;;;;;;20.37;11.27;;;;;;;;;;5040707;28;20324;-70
2022/03/05 02:33:52;;;;;;;17.03;10.60;;;;;;;;;;5040525;28;20250;-70
2022/03/05 02:36:21;;;;;;;19.40;10.93;;;;;;;;;;5040784;28;20262;-70
2022/03/05 02:38:51;;;;;;;16.57;11.97;;;;;;;;;;5040497;28;20208;-70
2022/03/05 02:41:19;;;;;;;17.77;11.07;;;;;;;;;;5040534;28;20690;-70
2022/03/05 02:43:47;;;;;;;18.67;10.93;;;;;;;;;;5040435;28;20723;-70
2022/03/05 02:46:15;;;;;;;23.50;12.03;;;;;;;;;;5040422;28;20224;-70
2022/03/05 02:48:43;;;;;;;17.13;11.00;;;;;;;;;;5040087;28;20242;-70
2022/03/05 02:51:11;;;;;;;19.37;11.73;;;;;;;;;;5040363;28;20294;-70
2022/03/05 02:53:39;;;;;;;21.13;12.30;;;;;;;;;;5040302;28;20215;-70
2022/03/05 02:56:09;;;;;;;18.20;12.00;;;;;;;;;;5040250;28;20263;-70
2022/03/05 02:58:37;;;;;;;18.70;10.30;;;;;;;;;;5040120;28;20282;-70
2022/03/05 03:01:06;;;;;;;17.83;10.30;;;;;;;;;;5021567;28;20247;-70
2022/03/05 03:03:35;;;;;;;18.60;11.20;;;;;;;;;;5020430;28;20208;-70
2022/03/05 03:06:03;;;;;;;18.30;11.10;;;;;;;;;;5020189;28;20259;-70
2022/03/05 03:08:31;;;;;;;17.97;11.00;;;;;;;;;;5020128;28;20723;-70
2022/03/05 03:10:59;;;;;;;19.63;11.67;;;;;;;;;;5026690;28;20638;-70
2022/03/05 03:13:28;;;;;;;20.57;11.83;;;;;;;;;;5039762;28;20766;-70
2022/03/05 03:15:56;;;;;;;18.00;10.80;;;;;;;;;;5039924;28;20340;-70
2022/03/05 03:18:24;;;;;;;19.30;11.40;;;;;;;;;;5039623;28;20294;-70
2022/03/05 03:20:52;;;;;;;23.73;10.50;;;;;;;;;;5039694;28;20291;-70
2022/03/05 03:23:20;;;;;;;19.40;11.30;;;;;;;;;;5039683;28;20244;-70
2022/03/05 03:25:48;;;;;;;19.40;11.43;;;;;;;;;;5031843;28;20306;-70
2022/03/05 03:28:16;;;;;;;17.67;10.53;;;;;;;;;;5020052;28;20290;-70
2022/03/05 03:30:46;;;;;;;15.17;10.27;;;;;;;;;;5020032;28;20292;-70
2022/03/05 03:33:14;;;;;;;18.87;11.67;;;;;;;;;;5019618;28;20637;-70
2022/03/05 03:35:42;;;;;;;20.63;10.30;;;;;;;;;;5019567;28;20264;-70
2022/03/05 03:38:10;;;;;;;17.17;10.60;;;;;;;;;;5018594;28;20236;-70
2022/03/05 03:40:38;;;;;;;18.23;11.23;;;;;;;;;;5026413;28;20239;-70
2022/03/05 03:43:06;;;;;;;19.17;11.73;;;;;;;;;;5034008;28;20451;-70
2022/03/05 03:45:34;;;;;;;17.73;11.07;;;;;;;;;;5019693;28;20263;-70
2022/03/05 03:48:04;;;;;;;19.40;10.20;;;;;;;;;;5019568;28;20235;-70
2022/03/05 03:50:32;;;;;;;19.90;11.47;;;;;;;;;;5019520;28;20649;-70
2022/03/05 03:53:00;;;;;;;18.80;11.67;;;;;;;;;;5019422;28;20236;-70
2022/03/05 03:55:28;;;;;;;16.97;11.53;;;;;;;;;;5019190;28;20236;-70
2022/03/05 03:57:56;;;;;;;17.60;11.03;;;;;;;;;;5019251;28;20530;-70
2022/03/05 04:00:24;;;;;;;16.30;10.47;;;;;;;;;;5019353;28;20530;-70
2022/03/05 04:02:52;;;;;;;16.83;11.00;;;;;;;;;;5026853;28;20449;-70
2022/03/05 04:05:21;;;;;;;14.53;10.47;;;;;;;;;;5038650;28;20986;-70
2022/03/05 04:10:35;;;;;;;15.50;10.07;;;;;;;;;;5038879;28;20525;-70
2022/03/05 04:13:03;;;;;;;17.53;11.47;;;;;;;;;;5038496;28;20512;-70
2022/03/05 04:15:31;;;;;;;18.03;10.67;;;;;;;;;;5038485;28;21040;-70
2022/03/05 04:17:59;;;;;;;16.67;11.17;;;;;;;;;;5038536;28;20438;-70
2022/03/05 04:20:29;;;;;;;20.13;11.43;;;;;;;;;;5038895;28;20533;-70
2022/03/05 04:22:58;;;;;;;20.17;11.93;;;;;;;;;;5038705;28;20517;-70
2022/03/05 04:25:26;;;;;;;15.47;10.07;;;;;;;;;;5033445;28;20890;-70
2022/03/05 04:27:54;;;;;;;21.87;11.40;;;;;;;;;;5018524;28;20474;-70
2022/03/05 04:30:22;;;;;;;23.13;10.80;;;;;;;;;;5018574;28;20892;-70
2022/03/05 04:32:50;;;;;;;18.67;11.70;;;;;;;;;;5018398;28;20471;-70
2022/03/05 04:35:18;;;;;;;16.87;11.53;;;;;;;;;;5018851;28;20507;-69
2022/03/05 04:37:47;;;;;;;18.30;11.17;;;;;;;;;;5018578;28;20535;-70
2022/03/05 04:40:16;;;;;;;16.03;10.67;;;;;;;;;;5018730;28;20475;-70
2022/03/05 04:43:01;;;;;;;17.27;10.40;;;;;;;;;;5031643;28;20509;-70
2022/03/05 04:45:29;;;;;;;18.20;11.17;;;;;;;;;;5018215;28;20463;-69
2022/03/05 04:47:57;;;;;;;15.83;10.50;;;;;;;;;;5018389;28;20483;-70
2022/03/05 04:50:24;;;;;;;18.10;10.77;;;;;;;;;;5018087;28;20486;-71
2022/03/05 04:52:54;;;;;;;19.57;11.70;;;;;;;;;;5018380;28;20534;-71
2022/03/05 04:55:22;;;;;;;15.90;10.73;;;;;;;;;;5018177;28;20558;-70
2022/03/05 04:57:50;;;;;;;18.37;10.43;;;;;;;;;;5018471;28;20519;-63
2022/03/05 05:00:18;;;;;;;19.13;10.83;;;;;;;;;;5025137;28;20463;-62
2022/03/05 05:02:46;;;;;;;19.07;11.27;;;;;;;;;;5027413;28;20541;-63
2022/03/05 05:05:14;;;;;;;20.93;11.20;;;;;;;;;;5029088;28;20834;-63
2022/03/05 05:07:42;;;;;;;16.80;11.07;;;;;;;;;;5029166;28;20533;-63
2022/03/05 05:10:11;;;;;;;16.97;11.13;;;;;;;;;;5029145;28;20446;-62
2022/03/05 05:12:39;;;;;;;17.73;11.30;;;;;;;;;;5029846;28;20994;-62
2022/03/05 05:15:08;;;;;;;20.33;11.43;;;;;;;;;;5026568;28;20878;-62
2022/03/05 05:17:36;;;;;;;18.33;11.10;;;;;;;;;;5028570;28;20485;-62
2022/03/05 05:20:05;;;;;;;16.10;10.00;;;;;;;;;;5027746;28;20986;-62
2022/03/05 05:22:33;;;;;;;19.03;10.30;;;;;;;;;;5026216;28;20466;-62
2022/03/05 05:25:02;;;;;;;18.80;12.10;;;;;;;;;;5029192;28;20459;-62
2022/03/05 05:27:35;;;;;;;20.23;11.57;;;;;;;;;;5020362;28;20489;-62
2022/03/05 05:30:03;;;;;;;18.43;10.87;;;;;;;;;;5021187;28;20447;-62
2022/03/05 05:32:31;;;;;;;17.50;10.80;;;;;;;;;;5020707;28;20472;-62
2022/03/05 05:34:59;;;;;;;19.70;11.10;;;;;;;;;;5018164;28;20530;-62
2022/03/05 05:37:27;;;;;;;17.83;11.17;;;;;;;;;;5019244;28;21060;-62
2022/03/05 05:39:55;;;;;;;16.70;10.27;;;;;;;;;;5018853;28;20478;-62
2022/03/05 05:42:24;;;;;;;18.10;11.83;;;;;;;;;;5020684;28;20497;-62
2022/03/05 05:44:53;;;;;;;14.83;9.97;;;;;;;;;;5017386;28;20526;-65
2022/03/05 05:47:21;;;;;;;23.60;10.90;;;;;;;;;;5018899;28;20436;-63
2022/03/05 05:49:49;;;;;;;20.57;11.57;;;;;;;;;;5022680;28;20443;-62
2022/03/05 05:52:18;;;;;;;20.03;11.40;;;;;;;;;;5027545;28;20818;-62
2022/03/05 05:54:46;;;;;;;18.70;11.27;;;;;;;;;;5026428;28;20534;-64
2022/03/05 05:57:17;;;;;;;19.20;11.60;;;;;;;;;;5029142;28;20485;-63
2022/03/05 05:59:45;;;;;;;18.47;10.67;;;;;;;;;;5026214;28;20467;-62
2022/03/05 06:02:14;;;;;;;22.63;10.40;;;;;;;;;;5031872;28;20447;-63
2022/03/05 06:04:42;;;;;;;19.67;11.77;;;;;;;;;;5031801;28;20442;-63
2022/03/05 06:07:10;;;;;;;15.30;10.23;;;;;;;;;;5033405;28;20450;-63
2022/03/05 06:09:38;;;;;;;17.43;11.23;;;;;;;;;;5031820;28;20470;-63
2022/03/05 06:12:10;;;;;;;18.03;11.00;;;;;;;;;;5031752;28;20514;-62
2022/03/05 06:14:38;;;;;;;18.80;9.73;;;;;;;;;;5012671;28;20444;-64
2022/03/05 06:17:06;;;;;;;22.57;10.93;;;;;;;;;;5013961;28;21069;-63
2022/03/05 06:19:36;;;;;;;17.93;10.53;;;;;;;;;;5012258;28;20499;-63
2022/03/05 06:22:05;;;;;;;17.87;10.70;;;;;;;;;;5017360;28;20869;-63
2022/03/05 06:24:33;;;;;;;15.43;11.03;;;;;;;;;;5021180;28;20474;-62
2022/03/05 06:27:01;;;;;;;18.83;11.17;;;;;;;;;;5003495;28;20496;-63
2022/03/05 06:29:29;;;;;;;19.17;11.07;;;;;;;;;;5002295;28;20536;-62
2022/03/05 06:31:58;;;;;;;14.40;9.77;;;;;;;;;;5018200;28;20475;-62
2022/03/05 06:34:27;;;;;;;17.63;10.33;;;;;;;;;;5017824;28;20497;-63
2022/03/05 06:36:57;;;;;;;19.00;10.80;;;;;;;;;;5019252;28;20483;-62
2022/03/05 06:39:25;;;;;;;19.97;10.70;;;;;;;;;;5020049;28;20526;-62
2022/03/05 06:41:53;;;;;;;18.23;10.57;;;;;;;;;;5019970;28;20489;-62
2022/03/05 06:44:21;;;;;;;18.67;10.63;;;;;;;;;;5017764;28;21034;-62
2022/03/05 06:46:49;;;;;;;23.37;11.80;;;;;;;;;;5018358;28;20554;-63
2022/03/05 06:49:17;;;;;;;18.53;10.13;;;;;;;;;;5017530;28;20526;-63
2022/03/05 06:51:45;;;;;;;16.53;10.43;;;;;;;;;;5019881;28;20447;-63
2022/03/05 06:54:14;;;;;;;16.90;10.67;;;;;;;;;;5020482;28;20475;-63
2022/03/05 06:56:43;;;;;;;20.70;11.00;;;;;;;;;;5020292;28;20901;-64
2022/03/05 06:59:11;;;;;;;15.50;10.33;;;;;;;;;;5020288;28;20959;-63
2022/03/05 07:01:42;;;;;;;16.27;10.33;;;;;;;;;;5014624;28;21070;-63
2022/03/05 07:04:10;;;;;;;18.63;11.13;;;;;;;;;;5018550;28;20451;-63
2022/03/05 07:06:38;;;;;;;18.43;11.70;;;;;;;;;;5018924;28;20499;-63
2022/03/05 07:09:06;;;;;;;19.40;11.23;;;;;;;;;;5017373;28;20447;-63
2022/03/05 07:11:35;;;;;;;19.10;11.90;;;;;;;;;;5014995;28;20482;-61
2022/03/05 07:14:03;;;;;;;22.70;11.63;;;;;;;;;;5017095;28;20526;-62
2022/03/05 07:16:31;;;;;;;16.50;9.70;;;;;;;;;;5019696;28;20541;-62
2022/03/05 07:19:00;;;;;;;19.70;11.43;;;;;;;;;;5018164;28;20588;-62
2022/03/05 07:21:28;;;;;;;19.07;11.33;;;;;;;;;;5013335;28;20553;-62
2022/03/05 07:23:56;;;;;;;18.47;11.10;;;;;;;;;;5003890;28;20970;-62
2022/03/05 07:26:24;;;;;;;16.40;10.40;;;;;;;;;;5018016;28;20499;-62
2022/03/05 07:28:53;;;;;;;18.67;10.47;;;;;;;;;;5016836;28;20463;-62
2022/03/05 07:31:21;;;;;;;20.83;10.93;;;;;;;;;;5018166;28;20531;-67
2022/03/05 07:33:49;;;;;;;21.00;11.47;;;;;;;;;;5016256;28;20802;-68
2022/03/05 07:36:19;;;;;;;16.13;11.17;;;;;;;;;;5000971;28;20504;-67
2022/03/05 07:38:47;;;;;;;16.07;10.70;;;;;;;;;;5019031;28;20486;-66
2022/03/05 07:41:15;;;;;;;18.50;10.13;;;;;;;;;;5019681;28;20478;-65
2022/03/05 07:43:43;;;;;;;16.13;10.70;;;;;;;;;;5015709;28;20542;-65
2022/03/05 07:46:12;;;;;;;23.30;12.27;;;;;;;;;;5015541;28;20889;-66
2022/03/05 07:48:40;;;;;;;17.37;11.70;;;;;;;;;;5016112;28;20478;-65
2022/03/05 07:51:08;;;;;;;22.10;11.80;;;;;;;;;;5018797;28;20515;-64
2022/03/05 07:53:36;;;;;;;19.20;11.07;;;;;;;;;;5019537;28;20478;-65
2022/03/05 07:56:04;;;;;;;17.07;10.73;;;;;;;;;;5019175;28;20506;-65
2022/03/05 07:58:32;;;;;;;20.03;10.30;;;;;;;;;;5019138;28;20514;-65
2022/03/05 08:01:00;;;;;;;25.03;14.33;;;;;;;;;;5016182;28;20491;-65
2022/03/05 08:03:30;;;;;;;17.10;10.60;;;;;;;;;;5003120;28;20454;-65
2022/03/05 08:05:58;;;;;;;17.97;10.77;;;;;;;;;;5015544;28;20498;-65
2022/03/05 08:08:26;;;;;;;20.83;10.93;;;;;;;;;;5017942;28;20200;-65
2022/03/05 08:10:54;;;;;;;17.00;11.20;;;;;;;;;;5016561;28;20234;-65
2022/03/05 08:13:22;;;;;;;17.67;11.77;;;;;;;;;;5028127;28;20516;-65
2022/03/05 08:15:51;;;;;;;20.27;11.70;;;;;;;;;;5034746;28;20490;-65
2022/03/05 08:18:19;;;;;;;20.37;11.87;;;;;;;;;;5035770;28;20514;-65
2022/03/05 08:20:49;;;;;;;23.10;11.80;;;;;;;;;;5037234;28;20521;-64
2022/03/05 08:23:17;;;;;;;19.77;11.23;;;;;;;;;;5034405;28;20814;-65
2022/03/05 08:25:45;;;;;;;18.43;11.63;;;;;;;;;;5037829;28;20545;-65
2022/03/05 08:28:13;;;;;;;18.53;11.83;;;;;;;;;;5034045;28;20493;-65
2022/03/05 08:30:41;;;;;;;18.90;10.47;;;;;;;;;;5037017;28;20522;-65
2022/03/05 08:33:09;;;;;;;16.50;10.03;;;;;;;;;;5036835;28;20443;-65
2022/03/05 08:35:37;;;;;;;19.73;11.97;;;;;;;;;;5037299;28;20526;-65
2022/03/05 08:38:07;;;;;;;18.17;11.57;;;;;;;;;;5035171;28;20951;-65
2022/03/05 08:40:35;;;;;;;20.47;12.33;;;;;;;;;;5036364;28;21026;-66
2022/03/05 08:43:03;;;;;;;20.23;11.93;;;;;;;;;;5033468;28;20470;-66
2022/03/05 08:45:31;;;;;;;17.53;11.40;;;;;;;;;;5035144;28;20487;-68
2022/03/05 08:47:59;;;;;;;24.73;11.77;;;;;;;;;;5034659;28;20437;-69
2022/03/05 08:50:27;;;;;;;17.90;10.67;;;;;;;;;;5037923;28;20525;-67
2022/03/05 08:52:55;;;;;;;19.73;11.20;;;;;;;;;;5031224;28;20479;-68
2022/03/05 08:55:25;;;;;;;21.37;12.50;;;;;;;;;;5017724;28;20494;-68
2022/03/05 08:57:53;;;;;;;19.83;10.67;;;;;;;;;;5018497;28;20475;-68
2022/03/05 09:00:21;;;;;;;16.07;11.07;;;;;;;;;;5033360;28;20455;-68
2022/03/05 09:02:49;;;;;;;23.80;12.73;;;;;;;;;;5026880;28;20985;-68
2022/03/05 09:05:17;;;;;;;19.40;12.13;;;;;;;;;;5017924;28;20227;-68
2022/03/05 09:07:45;;;;;;;18.27;11.77;;;;;;;;;;5018263;28;20240;-68
2022/03/05 09:10:13;;;;;;;17.20;11.40;;;;;;;;;;5024084;28;20227;-68
2022/03/05 09:12:43;;;;;;;22.73;12.03;;;;;;;;;;5037616;28;20772;-68
2022/03/05 09:15:11;;;;;;;21.23;12.07;;;;;;;;;;5037350;28;20238;-68
2022/03/05 09:17:40;;;;;;;20.93;11.80;;;;;;;;;;5037215;28;20235;-68
2022/03/05 09:20:09;;;;;;;27.70;11.60;;;;;;;;;;5037316;28;20573;-68
2022/03/05 09:22:37;;;;;;;33.00;12.40;;;;;;;;;;5037866;28;20250;-68
2022/03/05 09:25:05;;;;;;;21.43;12.03;;;;;;;;;;5035610;28;20218;-68
2022/03/05 09:27:34;;;;;;;19.57;11.80;;;;;;;;;;5018089;28;20239;-68
2022/03/05 09:30:03;;;;;;;19.33;10.77;;;;;;;;;;5024767;28;20234;-68
2022/03/05 09:32:32;;;;;;;21.13;12.53;;;;;;;;;;5037457;28;20242;-68
2022/03/05 09:35:00;;;;;;;18.63;11.30;;;;;;;;;;5037470;28;20719;-68
2022/03/05 09:37:28;;;;;;;17.90;11.23;;;;;;;;;;5037557;28;20290;-68
2022/03/05 09:39:56;;;;;;;20.13;12.40;;;;;;;;;;5037635;28;20231;-69
2022/03/05 09:42:24;;;;;;;20.97;12.03;;;;;;;;;;5037419;28;20218;-69
2022/03/05 09:44:53;;;;;;;21.13;12.73;;;;;;;;;;5037061;28;20278;-68
2022/03/05 09:47:22;;;;;;;20.77;12.33;;;;;;;;;;5031880;28;20239;-68
2022/03/05 09:49:51;;;;;;;20.67;12.07;;;;;;;;;;5017582;28;20243;-68
2022/03/05 09:52:19;;;;;;;22.30;12.90;;;;;;;;;;5017796;28;20204;-68
2022/03/05 09:54:47;;;;;;;19.87;11.03;;;;;;;;;;5017377;28;20731;-68
2022/03/05 09:57:15;;;;;;;18.57;12.40;;;;;;;;;;5017761;28;20267;-68
2022/03/05 09:59:43;;;;;;;20.43;12.00;;;;;;;;;;5020581;28;20262;-68
2022/03/05 10:02:12;;;;;;;20.00;12.07;;;;;;;;;;5033885;28;20294;-68
2022/03/05 10:04:42;;;;;;;20.40;12.60;;;;;;;;;;5036962;28;20210;-68
2022/03/05 10:07:11;;;;;;;20.10;12.40;;;;;;;;;;5037099;28;20251;-68
2022/03/05 10:09:40;;;;;;;21.67;11.97;;;;;;;;;;5032116;28;20283;-66
2022/03/05 10:12:26;;;;;;;19.33;11.73;;;;;;;;;;5034043;28;20467;-66
2022/03/05 10:15:05;;;;;;;18.37;12.10;;;;;;;;;;5035795;28;20299;-66
2022/03/05 10:17:46;;;;;;;21.17;11.73;;;;;;;;;;5036777;28;20691;-65
2022/03/05 10:20:15;;;;;;;22.23;13.10;;;;;;;;;;5036918;28;20933;-66
2022/03/05 10:22:51;;;;;;;28.07;17.80;;;;;;;;;;5037119;28;20290;-66
2022/03/05 10:25:27;;;;;;;20.27;12.10;;;;;;;;;;5033138;28;20307;-66
2022/03/05 10:28:00;;;;;;;17.43;11.80;;;;;;;;;;5017437;28;20295;-66
2022/03/05 10:30:31;;;;;;;19.77;11.30;;;;;;;;;;5017301;28;20534;-66
2022/03/05 10:33:00;;;;;;;19.83;11.93;;;;;;;;;;5016909;28;20455;-66
2022/03/05 10:35:29;;;;;;;18.97;11.00;;;;;;;;;;5017445;28;20315;-66
2022/03/05 10:37:57;;;;;;;21.37;10.73;;;;;;;;;;5016787;28;20530;-66
2022/03/05 10:40:26;;;;;;;19.40;12.23;;;;;;;;;;5017155;28;20482;-66
2022/03/05 10:42:54;;;;;;;15.40;10.37;;;;;;;;;;5017236;28;20482;-66
2022/03/05 10:45:22;;;;;;;17.20;11.57;;;;;;;;;;5029058;28;20259;-66
2022/03/05 10:47:51;;;;;;;15.97;10.43;;;;;;;;;;5019134;28;20530;-66
2022/03/05 10:50:22;;;;;;;17.07;11.07;;;;;;;;;;5020777;28;20669;-65
2022/03/05 10:52:53;;;;;;;17.70;10.53;;;;;;;;;;5033791;28;20239;-66
2022/03/05 10:55:21;;;;;;;20.90;10.07;;;;;;;;;;5040256;28;20263;-66
2022/03/05 10:57:59;;;;;;;20.63;10.30;;;;;;;;;;5039864;28;20235;-66
2022/03/05 11:00:27;;;;;;;17.23;10.60;;;;;;;;;;5038204;28;20255;-66
2022/03/05 11:02:56;;;;;;;21.07;11.23;;;;;;;;;;5039681;28;20203;-66
2022/03/05 11:05:25;;;;;;;19.57;11.30;;;;;;;;;;5038647;28;20303;-66
2022/03/05 11:07:55;;;;;;;17.83;11.87;;;;;;;;;;5037441;28;20207;-70
2022/03/05 11:10:29;;;;;;;18.03;11.63;;;;;;;;;;5037204;28;20227;-73
2022/03/05 11:12:59;;;;;;;19.70;11.30;;;;;;;;;;5038721;28;20227;-70
2022/03/05 11:15:28;;;;;;;19.23;11.30;;;;;;;;;;5035917;28;20267;-70
2022/03/05 11:17:59;;;;;;;18.63;11.73;;;;;;;;;;5037538;28;20207;-71
2022/03/05 11:20:27;;;;;;;20.13;11.20;;;;;;;;;;5038750;28;20262;-76
2022/03/05 11:22:56;;;;;;;22.87;11.97;;;;;;;;;;5037307;28;20710;-73
2022/03/05 11:25:36;;;;;;;19.07;11.73;;;;;;;;;;5024720;28;20247;-77
2022/03/05 11:28:07;;;;;;;17.90;11.33;;;;;;;;;;5037271;28;20231;-75
2022/03/05 11:30:45;;;;;;;39.77;12.53;;;;;;;;;;5037642;28;20204;-77
2022/03/05 11:33:13;;;;;;;20.67;11.70;;;;;;;;;;5033901;28;20635;-76
2022/03/05 11:35:43;;;;;;;18.53;11.33;;;;;;;;;;5039480;28;20601;-77
2022/03/05 11:38:26;;;;;;;22.37;11.73;;;;;;;;;;5038875;28;20203;-76
2022/03/05 11:40:55;;;;;;;19.37;12.67;;;;;;;;;;5025231;28;20319;-75
2022/03/05 11:43:24;;;;;;;18.00;11.17;;;;;;;;;;5031272;28;20307;-74
2022/03/05 11:45:57;;;;;;;23.43;13.37;;;;;;;;;;5037343;28;20655;-75
2022/03/05 11:48:29;;;;;;;20.37;12.27;;;;;;;;;;5037155;28;20200;-77
2022/03/05 11:50:58;;;;;;;19.40;11.47;;;;;;;;;;5035686;28;20204;-77
2022/03/05 11:53:26;;;;;;;17.50;10.87;;;;;;;;;;5037018;28;20263;-75
2022/03/05 11:55:56;;;;;;;15.90;10.60;;;;;;;;;;5035210;28;20724;-70
2022/03/05 11:58:28;;;;;;;19.33;12.70;;;;;;;;;;5033192;28;20236;-69
2022/03/05 12:00:57;;;;;;;17.87;11.23;;;;;;;;;;5037461;28;20246;-69
2022/03/05 12:03:39;;;;;;;18.50;11.37;;;;;;;;;;5036813;28;20207;-67
2022/03/05 12:06:07;;;;;;;20.87;10.87;;;;;;;;;;5037456;28;20637;-67
2022/03/05 12:08:51;;;;;;;16.17;10.60;;;;;;;;;;5037164;28;20265;-71
2022/03/05 12:11:21;;;;;;;17.07;10.57;;;;;;;;;;5036619;28;20637;-71
2022/03/05 12:13:58;;;;;;;16.00;10.20;;;;;;;;;;5038876;28;20235;-70
2022/03/05 12:16:27;;;;;;;17.50;10.70;;;;;;;;;;5029214;28;20307;-75
2022/03/05 12:18:56;;;;;;;20.03;11.40;;;;;;;;;;5035371;28;20687;-66
2022/03/05 12:21:28;;;;;;;16.53;10.20;;;;;;;;;;5020454;28;20259;-75
2022/03/05 12:24:00;;;;;;;15.70;10.67;;;;;;;;;;5018470;28;20244;-70
2022/03/05 12:26:36;;;;;;;18.63;11.13;;;;;;;;;;5025171;28;20256;-73
2022/03/05 12:29:04;;;;;;;15.10;10.00;;;;;;;;;;5033395;28;20261;-76
2022/03/05 12:31:32;;;;;;;17.87;10.77;;;;;;;;;;5018491;28;20869;-77
2022/03/05 12:34:00;;;;;;;18.47;10.93;;;;;;;;;;5027351;28;20236;-75
2022/03/05 12:36:28;;;;;;;15.37;10.33;;;;;;;;;;5036332;28;20278;-74
2022/03/05 12:38:57;;;;;;;13.83;10.90;;;;;;;;;;5035436;28;20227;-74
2022/03/05 12:41:26;;;;;;;15.60;10.57;;;;;;;;;;5036699;28;20286;-74
2022/03/05 12:43:55;;;;;;;15.87;10.70;;;;;;;;;;5036268;28;20262;-75
2022/03/05 12:46:24;;;;;;;16.67;10.80;;;;;;;;;;5035058;28;20220;-74
2022/03/05 12:48:52;;;;;;;16.77;10.17;;;;;;;;;;5035065;28;20294;-74
2022/03/05 12:51:21;;;;;;;15.93;10.83;;;;;;;;;;5035718;28;20226;-74
2022/03/05 12:53:58;;;;;;;15.57;9.70;;;;;;;;;;5035352;28;20679;-73
2022/03/05 12:56:26;;;;;;;16.57;9.87;;;;;;;;;;5034060;28;20258;-75
2022/03/05 12:58:57;;;;;;;14.97;9.90;;;;;;;;;;5036786;28;20262;-72
2022/03/05 13:01:26;;;;;;;16.53;10.40;;;;;;;;;;5034236;28;20291;-74
2022/03/05 13:03:55;;;;;;;14.33;9.47;;;;;;;;;;5035040;28;20220;-73
2022/03/05 13:06:23;;;;;;;16.43;10.00;;;;;;;;;;5033844;28;20652;-74
2022/03/05 13:08:51;;;;;;;13.67;9.37;;;;;;;;;;5032969;28;20627;-74
2022/03/05 13:11:20;;;;;;;20.13;9.87;;;;;;;;;;5034358;28;20196;-73
2022/03/05 13:13:49;;;;;;;17.53;11.43;;;;;;;;;;5034784;28;20322;-73
2022/03/05 13:16:21;;;;;;;15.30;10.07;;;;;;;;;;5034067;28;20302;-73
2022/03/05 13:18:58;;;;;;;16.37;9.37;;;;;;;;;;5034630;28;20221;-74
2022/03/05 13:21:26;;;;;;;15.37;10.23;;;;;;;;;;5032754;28;20254;-75
2022/03/05 13:23:54;;;;;;;15.90;9.90;;;;;;;;;;5035899;28;20239;-75
2022/03/05 13:26:23;;;;;;;15.00;9.27;;;;;;;;;;5032694;28;20251;-74
2022/03/05 13:28:51;;;;;;;15.83;10.47;;;;;;;;;;5037046;28;20286;-74
2022/03/05 13:31:19;;;;;;;15.37;9.60;;;;;;;;;;5034718;28;20256;-75
2022/03/05 13:33:50;;;;;;;16.33;9.60;;;;;;;;;;5035470;28;20238;-75
2022/03/05 13:36:22;;;;;;;18.03;10.13;;;;;;;;;;5036588;28;20263;-72
2022/03/05 13:38:51;;;;;;;16.13;9.20;;;;;;;;;;5025931;28;20208;-74
2022/03/05 13:41:20;;;;;;;15.67;10.23;;;;;;;;;;5037027;28;20315;-73
2022/03/05 13:43:49;;;;;;;13.67;9.37;;;;;;;;;;5035319;28;20278;-73
2022/03/05 13:46:19;;;;;;;13.57;8.87;;;;;;;;;;5029178;28;20238;-73
2022/03/05 13:48:49;;;;;;;15.00;10.23;;;;;;;;;;5019482;28;20228;-73
2022/03/05 13:51:18;;;;;;;14.30;9.10;;;;;;;;;;5028999;28;20228;-72
2022/03/05 13:53:47;;;;;;;15.13;9.93;;;;;;;;;;5017430;28;20276;-73
2022/03/05 13:56:15;;;;;;;14.40;10.13;;;;;;;;;;5017315;28;20232;-72
2022/03/05 13:58:44;;;;;;;19.50;10.10;;;;;;;;;;5017392;28;20299;-72
2022/03/05 14:01:29;;;;;;;12.97;9.33;;;;;;;;;;5033197;28;20223;-72
2022/03/05 14:04:09;;;;;;;13.10;8.63;;;;;;;;;;5037027;28;20215;-72
2022/03/05 14:06:54;;;;;;;17.27;10.63;;;;;;;;;;5036986;28;20722;-72
2022/03/05 14:09:28;;;;;;;16.47;10.87;;;;;;;;;;5036345;28;20239;-71
2022/03/05 14:12:04;;;;;;;14.20;9.97;;;;;;;;;;5037292;28;20257;-72
2022/03/05 14:14:35;;;;;;;14.13;9.60;;;;;;;;;;5031859;28;20203;-72
2022/03/05 14:17:03;;;;;;;15.07;10.10;;;;;;;;;;5026910;28;20321;-72
2022/03/05 14:19:33;;;;;;;17.13;10.87;;;;;;;;;;5029642;28;20290;-73
2022/03/05 14:22:08;;;;;;;12.47;9.77;;;;;;;;;;5032095;28;20255;-72
2022/03/05 14:24:37;;;;;;;15.60;9.67;;;;;;;;;;5040835;28;20238;-73
2022/03/05 14:27:12;;;;;;;15.57;9.33;;;;;;;;;;5040926;28;20258;-72
2022/03/05 14:29:41;;;;;;;13.70;9.40;;;;;;;;;;5040820;28;20234;-73
2022/03/05 14:32:09;;;;;;;15.83;9.70;;;;;;;;;;5033208;28;20267;-73